DHMUL EDNY-EDNY
Flight info
| Callsign | DHMUL |
|---|---|
| Flight time | N/A |
| Altitude | 3000 |
| Route | DCT LSZE DCT LSZM DCT |
| Aircraft | AS50/L-SDG/S |
Departure
| Time | 2026-04-27 13:08 |
|---|---|
| Airport | Bodensee Airport Friedrichshafen (EDNY) |
Arrival
| Time | N/A |
|---|---|
| Airport | Bodensee Airport Friedrichshafen (EDNY) |
| Time | Latitude | Longitude | Altitude | Speed | Heading |
|---|---|---|---|---|---|
| 2026-04-27 12:54 | 47.66723 | 9.50803 | 1370 ft | 0 kts | 151° |
| 2026-04-27 13:07 | 47.66664 | 9.50692 | 1396 ft | 46 kts | 235° |
| 2026-04-27 13:07 | 47.66356 | 9.50589 | 1676 ft | 56 kts | 160° |
| 2026-04-27 13:07 | 47.65962 | 9.50907 | 1896 ft | 76 kts | 153° |
| 2026-04-27 13:08 | 47.65424 | 9.51306 | 2017 ft | 95 kts | 154° |
| 2026-04-27 13:08 | 47.64823 | 9.51792 | 2112 ft | 109 kts | 150° |
| 2026-04-27 13:08 | 47.64127 | 9.52378 | 2133 ft | 116 kts | 151° |
| 2026-04-27 13:08 | 47.63414 | 9.52954 | 2167 ft | 109 kts | 154° |
| 2026-04-27 13:09 | 47.62772 | 9.53414 | 2337 ft | 106 kts | 155° |
| 2026-04-27 13:09 | 47.62078 | 9.53884 | 2386 ft | 116 kts | 155° |
| 2026-04-27 13:09 | 47.61324 | 9.54388 | 2364 ft | 119 kts | 156° |
| 2026-04-27 13:09 | 47.60551 | 9.54908 | 2363 ft | 124 kts | 155° |
| 2026-04-27 13:10 | 47.59748 | 9.55451 | 2377 ft | 129 kts | 156° |
| 2026-04-27 13:10 | 47.58942 | 9.56005 | 2409 ft | 127 kts | 155° |
| 2026-04-27 13:10 | 47.58166 | 9.56535 | 2522 ft | 118 kts | 155° |
| 2026-04-27 13:10 | 47.57455 | 9.57007 | 2690 ft | 107 kts | 155° |
| 2026-04-27 13:11 | 47.56795 | 9.57423 | 2825 ft | 102 kts | 155° |
| 2026-04-27 13:11 | 47.56151 | 9.57806 | 2963 ft | 98 kts | 155° |
| 2026-04-27 13:11 | 47.55523 | 9.58166 | 3128 ft | 95 kts | 156° |
| 2026-04-27 13:11 | 47.54913 | 9.58518 | 3273 ft | 93 kts | 156° |
| 2026-04-27 13:12 | 47.54295 | 9.58876 | 3338 ft | 103 kts | 155° |
| 2026-04-27 13:12 | 47.53603 | 9.59312 | 3322 ft | 112 kts | 152° |
| 2026-04-27 13:12 | 47.52892 | 9.59829 | 3315 ft | 115 kts | 150° |
| 2026-04-27 13:12 | 47.52177 | 9.60372 | 3315 ft | 116 kts | 150° |
| 2026-04-27 13:13 | 47.51457 | 9.60928 | 3318 ft | 118 kts | 150° |
| 2026-04-27 13:13 | 47.50735 | 9.61478 | 3317 ft | 119 kts | 150° |
| 2026-04-27 13:13 | 47.50006 | 9.62034 | 3313 ft | 116 kts | 150° |
| 2026-04-27 13:13 | 47.49293 | 9.62572 | 3314 ft | 114 kts | 149° |
| 2026-04-27 13:14 | 47.48629 | 9.63181 | 3314 ft | 111 kts | 141° |
| 2026-04-27 13:14 | 47.48060 | 9.63947 | 3323 ft | 114 kts | 131° |
| 2026-04-27 13:14 | 47.47538 | 9.64823 | 3310 ft | 112 kts | 125° |
| 2026-04-27 13:14 | 47.47052 | 9.65765 | 3340 ft | 117 kts | 124° |
| 2026-04-27 13:15 | 47.46553 | 9.66744 | 3198 ft | 119 kts | 125° |
| 2026-04-27 13:15 | 47.46067 | 9.67687 | 2989 ft | 111 kts | 126° |
| 2026-04-27 13:15 | 47.45605 | 9.68545 | 2803 ft | 102 kts | 130° |
| 2026-04-27 13:15 | 47.45097 | 9.69329 | 2601 ft | 109 kts | 134° |
| 2026-04-27 13:16 | 47.44495 | 9.69945 | 2399 ft | 106 kts | 162° |
| 2026-04-27 13:16 | 47.43772 | 9.70162 | 2184 ft | 105 kts | 182° |
| 2026-04-27 13:16 | 47.43052 | 9.70106 | 2147 ft | 105 kts | 190° |
| 2026-04-27 13:16 | 47.42295 | 9.69995 | 2146 ft | 112 kts | 188° |
| 2026-04-27 13:17 | 47.41511 | 9.70265 | 2054 ft | 122 kts | 161° |
| 2026-04-27 13:17 | 47.40734 | 9.70747 | 1983 ft | 122 kts | 159° |
| 2026-04-27 13:17 | 47.39926 | 9.71100 | 1886 ft | 122 kts | 180° |
| 2026-04-27 13:17 | 47.39137 | 9.70819 | 1707 ft | 112 kts | 212° |
| 2026-04-27 13:18 | 47.38611 | 9.70205 | 1491 ft | 75 kts | 229° |
| 2026-04-27 13:18 | 47.38382 | 9.69860 | 1398 ft | 22 kts | 220° |
| 2026-04-27 13:18 | 47.38300 | 9.69794 | 1367 ft | 12 kts | 151° |
| 2026-04-27 13:18 | 47.38250 | 9.69845 | 1362 ft | 4 kts | 130° |
| 2026-04-27 13:19 | 47.38237 | 9.69874 | 1360 ft | 2 kts | 136° |
| 2026-04-27 13:19 | 47.38236 | 9.69876 | 1358 ft | 0 kts | 134° |
| 2026-04-27 13:30 | 47.38248 | 9.69864 | 1390 ft | 9 kts | 321° |
| 2026-04-27 13:30 | 47.38276 | 9.69730 | 1379 ft | 27 kts | 243° |
| 2026-04-27 13:31 | 47.38028 | 9.69359 | 1532 ft | 67 kts | 229° |
| 2026-04-27 13:31 | 47.37673 | 9.68781 | 1781 ft | 84 kts | 232° |
| 2026-04-27 13:31 | 47.37270 | 9.68144 | 2015 ft | 94 kts | 230° |
| 2026-04-27 13:31 | 47.36793 | 9.67394 | 2032 ft | 109 kts | 230° |
| 2026-04-27 13:32 | 47.36346 | 9.66443 | 2017 ft | 115 kts | 246° |
| 2026-04-27 13:32 | 47.36053 | 9.65368 | 2016 ft | 114 kts | 253° |
| 2026-04-27 13:32 | 47.35801 | 9.64259 | 2016 ft | 114 kts | 254° |
| 2026-04-27 13:32 | 47.35557 | 9.63143 | 2015 ft | 115 kts | 254° |
| 2026-04-27 13:33 | 47.35299 | 9.62037 | 2019 ft | 114 kts | 249° |
| 2026-04-27 13:33 | 47.34818 | 9.61091 | 2031 ft | 119 kts | 223° |
| 2026-04-27 13:33 | 47.34077 | 9.60493 | 2037 ft | 125 kts | 201° |
| 2026-04-27 13:33 | 47.33226 | 9.60166 | 2046 ft | 126 kts | 194° |
| 2026-04-27 13:34 | 47.32365 | 9.59834 | 2044 ft | 129 kts | 198° |
| 2026-04-27 13:34 | 47.31510 | 9.59430 | 2040 ft | 129 kts | 200° |
| 2026-04-27 13:34 | 47.30671 | 9.58988 | 2039 ft | 127 kts | 201° |
| 2026-04-27 13:34 | 47.29856 | 9.58536 | 2041 ft | 126 kts | 202° |
| 2026-04-27 13:35 | 47.29046 | 9.58074 | 2042 ft | 124 kts | 203° |
| 2026-04-27 13:35 | 47.28245 | 9.57622 | 2044 ft | 123 kts | 202° |
| 2026-04-27 13:35 | 47.27449 | 9.57168 | 2041 ft | 123 kts | 203° |
| 2026-04-27 13:35 | 47.26664 | 9.56677 | 2041 ft | 122 kts | 208° |
| 2026-04-27 13:36 | 47.25934 | 9.56067 | 2045 ft | 120 kts | 214° |
| 2026-04-27 13:36 | 47.25256 | 9.55308 | 2046 ft | 125 kts | 224° |
| 2026-04-27 13:36 | 47.24626 | 9.54430 | 2039 ft | 125 kts | 226° |
| 2026-04-27 13:36 | 47.24023 | 9.53531 | 2040 ft | 125 kts | 227° |
| 2026-04-27 13:37 | 47.23414 | 9.52616 | 2037 ft | 125 kts | 226° |
| 2026-04-27 13:37 | 47.22709 | 9.51880 | 2037 ft | 125 kts | 206° |
| 2026-04-27 13:37 | 47.21863 | 9.51611 | 2038 ft | 125 kts | 184° |
| 2026-04-27 13:37 | 47.21000 | 9.51566 | 2030 ft | 121 kts | 182° |
| 2026-04-27 13:38 | 47.20169 | 9.51505 | 2040 ft | 121 kts | 187° |
| 2026-04-27 13:38 | 47.19332 | 9.51342 | 2039 ft | 122 kts | 189° |
| 2026-04-27 13:38 | 47.18488 | 9.51133 | 2037 ft | 124 kts | 191° |
| 2026-04-27 13:38 | 47.17639 | 9.50898 | 2036 ft | 124 kts | 192° |
| 2026-04-27 13:39 | 47.16804 | 9.50707 | 2038 ft | 123 kts | 184° |
| 2026-04-27 13:39 | 47.15947 | 9.50691 | 2039 ft | 124 kts | 180° |
| 2026-04-27 13:39 | 47.15078 | 9.50694 | 2042 ft | 126 kts | 179° |
| 2026-04-27 13:39 | 47.14190 | 9.50694 | 2035 ft | 127 kts | 180° |
| 2026-04-27 13:40 | 47.13318 | 9.50687 | 2033 ft | 123 kts | 180° |
| 2026-04-27 13:40 | 47.12475 | 9.50667 | 2030 ft | 120 kts | 183° |
| 2026-04-27 13:40 | 47.11655 | 9.50452 | 2037 ft | 120 kts | 194° |
| 2026-04-27 13:40 | 47.10854 | 9.50117 | 2041 ft | 120 kts | 199° |
| 2026-04-27 13:41 | 47.10050 | 9.49749 | 2036 ft | 121 kts | 199° |
| 2026-04-27 13:41 | 47.09256 | 9.49375 | 2031 ft | 118 kts | 199° |
| 2026-04-27 13:41 | 47.08490 | 9.49018 | 2032 ft | 116 kts | 199° |
| 2026-04-27 13:41 | 47.07717 | 9.48657 | 2038 ft | 119 kts | 199° |
| 2026-04-27 13:42 | 47.06910 | 9.48284 | 2034 ft | 124 kts | 198° |
| 2026-04-27 13:42 | 47.06085 | 9.47903 | 2035 ft | 126 kts | 198° |
| 2026-04-27 13:42 | 47.05236 | 9.47525 | 2034 ft | 129 kts | 194° |
| 2026-04-27 13:42 | 47.04343 | 9.47515 | 2037 ft | 129 kts | 175° |
| 2026-04-27 13:43 | 47.03498 | 9.47576 | 2129 ft | 109 kts | 178° |
| 2026-04-27 13:43 | 47.02860 | 9.47666 | 2117 ft | 80 kts | 172° |
| 2026-04-27 13:43 | 47.02349 | 9.47885 | 2004 ft | 73 kts | 166° |
| 2026-04-27 13:43 | 47.01889 | 9.47987 | 1933 ft | 60 kts | 181° |
| 2026-04-27 13:44 | 47.01548 | 9.48052 | 1799 ft | 35 kts | 127° |
| 2026-04-27 13:44 | 47.01449 | 9.48268 | 1696 ft | 19 kts | 117° |
| 2026-04-27 13:44 | 47.01456 | 9.48351 | 1673 ft | 6 kts | 49° |
| 2026-04-27 13:44 | 47.01476 | 9.48382 | 1654 ft | 3 kts | 57° |
| 2026-04-27 13:45 | 47.01477 | 9.48384 | 1655 ft | 0 kts | 58° |
| 2026-04-27 13:50 | 47.01486 | 9.48382 | 1658 ft | 6 kts | 329° |
| 2026-04-27 13:51 | 47.01650 | 9.48134 | 1757 ft | 62 kts | 333° |
| 2026-04-27 13:51 | 47.02051 | 9.47802 | 2095 ft | 70 kts | 328° |
| 2026-04-27 13:51 | 47.02443 | 9.47306 | 2404 ft | 83 kts | 313° |
| 2026-04-27 13:51 | 47.02829 | 9.46576 | 2632 ft | 94 kts | 309° |
| 2026-04-27 13:52 | 47.03232 | 9.45777 | 2844 ft | 102 kts | 308° |
| 2026-04-27 13:52 | 47.03680 | 9.44912 | 3023 ft | 110 kts | 308° |
| 2026-04-27 13:52 | 47.04150 | 9.44027 | 3281 ft | 107 kts | 309° |
| 2026-04-27 13:52 | 47.04597 | 9.43151 | 3626 ft | 110 kts | 304° |
| 2026-04-27 13:53 | 47.05321 | 9.41010 | 4090 ft | 131 kts | 296° |
| 2026-04-27 13:53 | 47.05690 | 9.39784 | 4072 ft | 137 kts | 295° |
| 2026-04-27 13:53 | 47.06092 | 9.38483 | 4050 ft | 139 kts | 296° |
| 2026-04-27 13:54 | 47.06528 | 9.37235 | 4056 ft | 138 kts | 301° |
| 2026-04-27 13:54 | 47.07040 | 9.36047 | 4046 ft | 135 kts | 306° |
| 2026-04-27 13:54 | 47.07569 | 9.34946 | 4048 ft | 129 kts | 307° |
| 2026-04-27 13:54 | 47.08100 | 9.33892 | 4051 ft | 128 kts | 307° |
| 2026-04-27 13:55 | 47.08647 | 9.32822 | 4047 ft | 131 kts | 308° |
| 2026-04-27 13:55 | 47.09191 | 9.31733 | 4053 ft | 135 kts | 308° |
| 2026-04-27 13:55 | 47.09664 | 9.30537 | 4051 ft | 137 kts | 296° |
| 2026-04-27 13:55 | 47.09980 | 9.29216 | 4050 ft | 137 kts | 287° |
| 2026-04-27 13:56 | 47.10155 | 9.27859 | 4051 ft | 137 kts | 280° |
| 2026-04-27 13:56 | 47.10308 | 9.26482 | 4050 ft | 135 kts | 280° |
| 2026-04-27 13:56 | 47.10459 | 9.25108 | 4057 ft | 139 kts | 280° |
| 2026-04-27 13:56 | 47.10620 | 9.23690 | 4058 ft | 143 kts | 281° |
| 2026-04-27 13:57 | 47.10793 | 9.22245 | 4056 ft | 144 kts | 282° |
| 2026-04-27 13:57 | 47.10968 | 9.20815 | 4051 ft | 141 kts | 281° |
| 2026-04-27 13:57 | 47.11145 | 9.19432 | 4055 ft | 137 kts | 282° |
| 2026-04-27 13:57 | 47.11325 | 9.18043 | 4059 ft | 140 kts | 282° |
| 2026-04-27 13:58 | 47.11509 | 9.16630 | 4052 ft | 143 kts | 283° |
| 2026-04-27 13:58 | 47.11692 | 9.15185 | 4055 ft | 145 kts | 282° |
| 2026-04-27 13:58 | 47.11765 | 9.13695 | 4050 ft | 146 kts | 271° |
| 2026-04-27 13:58 | 47.11724 | 9.12228 | 4057 ft | 143 kts | 268° |
| 2026-04-27 13:59 | 47.11513 | 9.10802 | 4056 ft | 144 kts | 248° |
| 2026-04-27 13:59 | 47.10881 | 9.09671 | 4048 ft | 144 kts | 216° |
| 2026-04-27 13:59 | 47.09989 | 9.09048 | 3605 ft | 146 kts | 205° |
| 2026-04-27 13:59 | 47.09184 | 9.08244 | 2693 ft | 132 kts | 241° |
| 2026-04-27 14:00 | 47.08847 | 9.07073 | 1931 ft | 119 kts | 237° |
| 2026-04-27 14:00 | 47.08312 | 9.06624 | 1628 ft | 62 kts | 196° |
| 2026-04-27 14:00 | 47.08016 | 9.06523 | 1540 ft | 28 kts | 195° |
| 2026-04-27 14:00 | 47.07906 | 9.06515 | 1500 ft | 8 kts | 120° |
| 2026-04-27 14:01 | 47.07907 | 9.06567 | 1493 ft | 5 kts | 92° |
| 2026-04-27 14:01 | 47.07921 | 9.06602 | 1493 ft | 2 kts | 22° |
| 2026-04-27 14:01 | 47.07930 | 9.06608 | 1481 ft | 0 kts | 22° |
| 2026-04-27 14:07 | 47.07956 | 9.06557 | 1526 ft | 29 kts | 313° |
| 2026-04-27 14:08 | 47.08201 | 9.06193 | 1822 ft | 60 kts | 319° |
| 2026-04-27 14:08 | 47.08558 | 9.05777 | 2131 ft | 75 kts | 331° |
| 2026-04-27 14:08 | 47.09141 | 9.05728 | 2296 ft | 95 kts | 7° |
| 2026-04-27 14:08 | 47.09838 | 9.05789 | 2433 ft | 106 kts | 357° |
| 2026-04-27 14:09 | 47.10833 | 9.05657 | 2577 ft | 107 kts | 353° |
| 2026-04-27 14:09 | 47.11338 | 9.05555 | 2673 ft | 110 kts | 352° |
| 2026-04-27 14:09 | 47.12088 | 9.05393 | 2888 ft | 107 kts | 351° |
| 2026-04-27 14:09 | 47.12838 | 9.05240 | 3048 ft | 112 kts | 352° |
| 2026-04-27 14:10 | 47.13581 | 9.05093 | 3328 ft | 108 kts | 352° |
| 2026-04-27 14:10 | 47.14340 | 9.04952 | 3568 ft | 110 kts | 352° |
| 2026-04-27 14:10 | 47.15096 | 9.04826 | 3842 ft | 111 kts | 353° |
| 2026-04-27 14:10 | 47.15889 | 9.04853 | 4111 ft | 113 kts | 3° |
| 2026-04-27 14:11 | 47.16637 | 9.05028 | 4426 ft | 108 kts | 10° |
| 2026-04-27 14:11 | 47.17397 | 9.05266 | 4596 ft | 113 kts | 12° |
| 2026-04-27 14:11 | 47.18145 | 9.05507 | 4911 ft | 109 kts | 11° |
| 2026-04-27 14:11 | 47.18895 | 9.05795 | 5094 ft | 115 kts | 20° |
| 2026-04-27 14:12 | 47.19586 | 9.06335 | 5222 ft | 110 kts | 32° |
| 2026-04-27 14:12 | 47.20232 | 9.06996 | 5251 ft | 122 kts | 33° |
| 2026-04-27 14:12 | 47.20962 | 9.07695 | 5227 ft | 128 kts | 30° |
| 2026-04-27 14:12 | 47.21712 | 9.08407 | 5232 ft | 131 kts | 32° |
| 2026-04-27 14:13 | 47.22491 | 9.09151 | 5233 ft | 137 kts | 32° |
| 2026-04-27 14:13 | 47.23306 | 9.09916 | 5232 ft | 141 kts | 31° |
| 2026-04-27 14:13 | 47.24122 | 9.10670 | 5227 ft | 136 kts | 31° |
| 2026-04-27 14:13 | 47.24941 | 9.11411 | 5228 ft | 140 kts | 30° |
| 2026-04-27 14:14 | 47.25781 | 9.12165 | 5230 ft | 142 kts | 30° |
| 2026-04-27 14:14 | 47.26611 | 9.12905 | 5227 ft | 141 kts | 30° |
| 2026-04-27 14:14 | 47.27448 | 9.13648 | 5231 ft | 140 kts | 31° |
| 2026-04-27 14:14 | 47.28284 | 9.14419 | 5224 ft | 142 kts | 32° |
| 2026-04-27 14:15 | 47.29098 | 9.15192 | 5228 ft | 137 kts | 32° |
| 2026-04-27 14:15 | 47.29891 | 9.15948 | 5232 ft | 135 kts | 32° |
| 2026-04-27 14:15 | 47.30683 | 9.16704 | 5228 ft | 135 kts | 32° |
| 2026-04-27 14:15 | 47.31458 | 9.17442 | 5229 ft | 132 kts | 32° |
| 2026-04-27 14:16 | 47.32248 | 9.18197 | 5239 ft | 141 kts | 32° |
| 2026-04-27 14:16 | 47.33093 | 9.19000 | 5228 ft | 145 kts | 32° |
| 2026-04-27 14:16 | 47.33924 | 9.19786 | 5231 ft | 143 kts | 32° |
| 2026-04-27 14:16 | 47.34735 | 9.20555 | 5222 ft | 134 kts | 32° |
| 2026-04-27 14:17 | 47.35507 | 9.21291 | 5230 ft | 131 kts | 32° |
| 2026-04-27 14:17 | 47.36284 | 9.22035 | 5235 ft | 136 kts | 32° |
| 2026-04-27 14:17 | 47.37064 | 9.22785 | 5227 ft | 131 kts | 32° |
| 2026-04-27 14:17 | 47.37820 | 9.23503 | 5232 ft | 129 kts | 32° |
| 2026-04-27 14:18 | 47.38590 | 9.24228 | 5238 ft | 136 kts | 31° |
| 2026-04-27 14:18 | 47.39405 | 9.24994 | 5237 ft | 142 kts | 32° |
| 2026-04-27 14:18 | 47.40237 | 9.25768 | 5228 ft | 139 kts | 32° |
| 2026-04-27 14:18 | 47.41043 | 9.26517 | 5227 ft | 134 kts | 31° |
| 2026-04-27 14:19 | 47.41828 | 9.27249 | 5237 ft | 138 kts | 32° |
| 2026-04-27 14:19 | 47.42633 | 9.28002 | 5227 ft | 135 kts | 32° |
| 2026-04-27 14:19 | 47.43426 | 9.28742 | 5227 ft | 134 kts | 31° |
| 2026-04-27 14:19 | 47.44201 | 9.29463 | 5230 ft | 130 kts | 31° |
| 2026-04-27 14:20 | 47.44970 | 9.30181 | 5235 ft | 133 kts | 31° |
| 2026-04-27 14:20 | 47.45752 | 9.30907 | 5236 ft | 134 kts | 32° |
| 2026-04-27 14:20 | 47.46544 | 9.31639 | 5229 ft | 133 kts | 31° |
| 2026-04-27 14:20 | 47.47320 | 9.32358 | 5230 ft | 131 kts | 31° |
| 2026-04-27 14:21 | 47.48089 | 9.33074 | 5232 ft | 131 kts | 31° |
| 2026-04-27 14:21 | 47.48856 | 9.33790 | 5229 ft | 129 kts | 31° |
| 2026-04-27 14:21 | 47.49608 | 9.34491 | 5237 ft | 131 kts | 31° |
| 2026-04-27 14:21 | 47.50390 | 9.35220 | 5229 ft | 133 kts | 31° |
| 2026-04-27 14:22 | 47.51177 | 9.35951 | 5219 ft | 136 kts | 31° |
| 2026-04-27 14:22 | 47.51988 | 9.36701 | 5123 ft | 139 kts | 32° |
| 2026-04-27 14:22 | 47.52802 | 9.37455 | 5017 ft | 138 kts | 32° |
| 2026-04-27 14:22 | 47.53627 | 9.38219 | 4873 ft | 139 kts | 32° |
| 2026-04-27 14:23 | 47.54453 | 9.38979 | 4643 ft | 140 kts | 31° |
| 2026-04-27 14:23 | 47.55279 | 9.39736 | 4402 ft | 139 kts | 32° |
| 2026-04-27 14:23 | 47.56092 | 9.40478 | 4146 ft | 139 kts | 31° |
| 2026-04-27 14:23 | 47.56914 | 9.41225 | 3908 ft | 138 kts | 31° |
| 2026-04-27 14:24 | 47.57732 | 9.41967 | 3656 ft | 139 kts | 31° |
| 2026-04-27 14:24 | 47.58543 | 9.42726 | 3457 ft | 136 kts | 34° |
| 2026-04-27 14:24 | 47.59315 | 9.43523 | 3265 ft | 135 kts | 35° |
| 2026-04-27 14:24 | 47.60083 | 9.44350 | 3030 ft | 137 kts | 36° |
| 2026-04-27 14:25 | 47.60841 | 9.45174 | 2827 ft | 134 kts | 36° |
| 2026-04-27 14:25 | 47.61599 | 9.45999 | 2549 ft | 137 kts | 36° |
| 2026-04-27 14:25 | 47.62371 | 9.46849 | 2306 ft | 138 kts | 36° |
| 2026-04-27 14:25 | 47.63126 | 9.47682 | 2162 ft | 134 kts | 36° |
| 2026-04-27 14:26 | 47.63870 | 9.48525 | 2038 ft | 130 kts | 39° |
| 2026-04-27 14:26 | 47.64412 | 9.49494 | 2122 ft | 120 kts | 53° |
| 2026-04-27 14:26 | 47.64877 | 9.50497 | 2168 ft | 116 kts | 52° |
| 2026-04-27 14:26 | 47.65369 | 9.51432 | 2185 ft | 116 kts | 48° |
| 2026-04-27 14:27 | 47.65888 | 9.52339 | 2155 ft | 115 kts | 47° |
| 2026-04-27 14:27 | 47.66400 | 9.53184 | 2080 ft | 103 kts | 41° |